Time;durP1;ratioP1;P1;durP2;ratioP2;P2;SDS_P1;SDS_P2;PMS_P1;PMS_P2;Temp;Humidity;BMP_temperature;BMP_pressure;BME280_temperature;BME280_humidity;BME280_pressure;Samples;Min_cycle;Max_cycle;Signal;HPM_P1;HPM_P2
2023/12/11 00:00:46;;;;;;;18.15;16.35;;;10.90;99.90;;;;;;4975175;28;20033;-88
2023/12/11 00:03:13;;;;;;;19.90;16.17;;;10.90;99.90;;;;;;4982195;28;20022;-89
2023/12/11 00:05:41;;;;;;;19.58;16.27;;;10.80;99.90;;;;;;4982356;28;20025;-89
2023/12/11 00:08:08;;;;;;;18.08;16.17;;;10.80;99.90;;;;;;4982196;28;20037;-89
2023/12/11 00:10:34;;;;;;;18.27;16.38;;;10.70;99.90;;;;;;4982226;28;20038;-90
2023/12/11 00:13:04;;;;;;;15.70;14.30;;;10.60;99.90;;;;;;4982409;28;20022;-91
2023/12/11 00:15:33;;;;;;;16.92;15.25;;;10.60;99.90;;;;;;4965803;28;20034;-90
2023/12/11 00:18:00;;;;;;;16.38;14.77;;;10.50;99.90;;;;;;4974132;28;20050;-88
2023/12/11 00:20:27;;;;;;;16.58;14.88;;;10.50;99.90;;;;;;4976289;28;20042;-88
2023/12/11 00:22:54;;;;;;;19.30;14.48;;;10.40;99.90;;;;;;4977240;28;20514;-90
2023/12/11 00:25:20;;;;;;;17.40;15.23;;;10.40;99.90;;;;;;4991598;28;20054;-91
2023/12/11 00:27:52;;;;;;;17.85;14.60;;;10.40;99.90;;;;;;4985668;28;20031;-92
2023/12/11 00:30:19;;;;;;;15.25;13.95;;;10.40;99.90;;;;;;4957023;28;20039;-90
2023/12/11 00:32:45;;;;;;;16.38;14.63;;;10.30;99.90;;;;;;4924926;29;20054;-90
2023/12/11 00:35:12;;;;;;;15.50;13.15;;;10.30;99.90;;;;;;4927235;29;20053;-91
2023/12/11 00:37:42;;;;;;;15.02;13.43;;;10.20;99.90;;;;;;4926901;28;20775;-92
2023/12/11 00:40:09;;;;;;;18.77;14.05;;;10.20;99.90;;;;;;4926246;29;20039;-87
2023/12/11 00:42:35;;;;;;;25.10;17.92;;;10.20;99.90;;;;;;4922695;29;20090;-85
2023/12/11 00:45:01;;;;;;;20.13;13.75;;;10.10;99.90;;;;;;4922873;29;20038;-88
2023/12/11 00:47:27;;;;;;;16.20;13.45;;;10.10;99.90;;;;;;4923145;29;20027;-88
2023/12/11 00:49:54;;;;;;;14.90;13.38;;;10.00;99.90;;;;;;4923020;29;20031;-87
2023/12/11 00:52:20;;;;;;;15.48;12.90;;;9.90;99.90;;;;;;4923062;29;20035;-88
2023/12/11 00:54:47;;;;;;;14.68;12.73;;;9.90;99.90;;;;;;4932892;28;20031;-89
2023/12/11 00:57:14;;;;;;;15.18;12.55;;;9.90;99.90;;;;;;4978088;28;20054;-87
2023/12/11 00:59:41;;;;;;;14.05;12.65;;;9.80;99.90;;;;;;4977808;28;20038;-88
2023/12/11 01:02:08;;;;;;;16.80;12.20;;;9.70;99.90;;;;;;4978036;28;20031;-88
2023/12/11 01:04:35;;;;;;;12.40;11.32;;;9.70;99.90;;;;;;4977805;28;20057;-88
2023/12/11 01:07:01;;;;;;;12.98;11.70;;;9.70;99.90;;;;;;4977974;28;20037;-87
2023/12/11 01:09:27;;;;;;;17.30;11.45;;;9.60;99.90;;;;;;4977831;28;20484;-89
2023/12/11 01:11:54;;;;;;;12.55;11.35;;;9.60;99.90;;;;;;4977870;28;20053;-89
2023/12/11 01:14:20;;;;;;;14.30;10.75;;;9.60;99.90;;;;;;4978027;28;20109;-89
2023/12/11 01:16:49;;;;;;;16.17;10.93;;;9.60;99.90;;;;;;4977998;28;20448;-90
2023/12/11 01:19:19;;;;;;;11.45;10.35;;;9.60;99.90;;;;;;4985416;28;20045;-88
2023/12/11 01:21:48;;;;;;;10.73;9.90;;;9.60;99.90;;;;;;4981082;28;20022;-87
2023/12/11 01:24:15;;;;;;;11.70;10.68;;;9.60;99.90;;;;;;4998771;28;20049;-88
2023/12/11 01:26:44;;;;;;;10.85;9.75;;;9.50;99.90;;;;;;4981632;28;20046;-87
2023/12/11 01:29:11;;;;;;;12.32;10.98;;;9.50;99.90;;;;;;4977504;28;20034;-89
2023/12/11 01:31:37;;;;;;;12.43;10.23;;;9.60;99.90;;;;;;4993738;28;20365;-88
2023/12/11 01:34:03;;;;;;;11.43;10.43;;;9.60;99.90;;;;;;4979023;28;20487;-87
2023/12/11 01:36:30;;;;;;;11.18;10.02;;;9.60;99.90;;;;;;4979242;28;20022;-88
2023/12/11 01:38:57;;;;;;;11.82;10.10;;;9.60;99.90;;;;;;4961352;28;20050;-88
2023/12/11 01:41:23;;;;;;;10.68;9.80;;;9.60;99.90;;;;;;4993913;28;20435;-89
2023/12/11 01:43:54;;;;;;;10.77;9.88;;;9.50;99.90;;;;;;4977422;28;20123;-88
2023/12/11 01:46:22;;;;;;;10.80;9.80;;;9.40;99.90;;;;;;4977849;28;20034;-88
2023/12/11 01:48:53;;;;;;;10.52;9.73;;;9.40;99.90;;;;;;4977258;28;20073;-88
2023/12/11 01:51:20;;;;;;;11.40;10.38;;;9.30;99.90;;;;;;4977407;28;20030;-89
2023/12/11 01:53:49;;;;;;;11.05;10.07;;;9.30;99.90;;;;;;4993766;28;20034;-88
2023/12/11 01:56:17;;;;;;;11.85;9.82;;;9.30;99.90;;;;;;4993508;28;20027;-90
2023/12/11 01:58:45;;;;;;;10.68;9.88;;;9.20;99.90;;;;;;4978578;28;20038;-90
2023/12/11 02:01:13;;;;;;;10.40;9.70;;;9.30;99.90;;;;;;4977274;28;20036;-88
2023/12/11 02:03:40;;;;;;;12.15;9.70;;;9.20;99.90;;;;;;4961375;28;20030;-90
2023/12/11 02:06:07;;;;;;;11.68;9.80;;;9.20;99.90;;;;;;4961287;28;20033;-90
2023/12/11 02:08:34;;;;;;;10.70;9.63;;;9.20;99.90;;;;;;4977079;28;20035;-90
2023/12/11 02:11:00;;;;;;;9.63;8.70;;;9.20;99.90;;;;;;4961253;28;20146;-91
2023/12/11 02:13:27;;;;;;;10.32;9.43;;;9.10;99.90;;;;;;4977495;28;20488;-88
2023/12/11 02:15:53;;;;;;;10.38;9.35;;;9.10;99.90;;;;;;4977242;28;20077;-88
2023/12/11 02:18:21;;;;;;;10.23;9.20;;;8.90;99.90;;;;;;4976953;28;20088;-89
2023/12/11 02:20:48;;;;;;;9.90;9.10;;;8.80;99.90;;;;;;4961143;28;20027;-89
2023/12/11 02:23:36;;;;;;;12.38;9.50;;;8.90;99.90;;;;;;4977118;28;20097;-90
2023/12/11 02:26:13;;;;;;;11.88;9.93;;;8.80;99.90;;;;;;4977054;28;20037;-90
2023/12/11 02:28:40;;;;;;;10.90;9.82;;;8.90;99.90;;;;;;4977311;28;20077;-88
2023/12/11 02:31:07;;;;;;;13.27;9.80;;;8.80;99.90;;;;;;4961824;28;20054;-88
2023/12/11 02:33:33;;;;;;;11.10;10.15;;;8.70;99.90;;;;;;4977214;28;20030;-89
2023/12/11 02:36:00;;;;;;;10.63;9.60;;;8.70;99.90;;;;;;4977198;28;20199;-89
2023/12/11 02:38:27;;;;;;;11.30;10.25;;;8.70;99.90;;;;;;4978658;28;20133;-89
2023/12/11 02:40:54;;;;;;;11.10;10.02;;;8.60;99.90;;;;;;4980318;28;20045;-90
2023/12/11 02:43:20;;;;;;;10.90;10.00;;;8.60;99.90;;;;;;4980648;28;20045;-90
2023/12/11 02:45:47;;;;;;;10.27;9.40;;;8.60;99.90;;;;;;4980379;28;20019;-88
2023/12/11 02:48:14;;;;;;;12.38;9.82;;;8.60;99.90;;;;;;4980436;28;20066;-88
2023/12/11 02:50:41;;;;;;;10.95;9.48;;;8.60;99.90;;;;;;4982799;28;20029;-90
2023/12/11 02:53:08;;;;;;;13.35;9.80;;;8.60;99.90;;;;;;4980500;28;20045;-90
2023/12/11 02:55:34;;;;;;;13.70;10.13;;;8.70;99.90;;;;;;4964418;28;20031;-90
2023/12/11 02:58:03;;;;;;;11.30;9.65;;;8.80;99.90;;;;;;4980189;28;20065;-90
2023/12/11 03:00:31;;;;;;;17.10;9.43;;;8.80;99.90;;;;;;4963990;28;20034;-89
2023/12/11 03:02:58;;;;;;;9.70;8.70;;;8.80;99.90;;;;;;4980213;28;20118;-88
2023/12/11 03:05:24;;;;;;;9.50;8.55;;;8.90;99.90;;;;;;4963944;28;20026;-88
2023/12/11 03:07:50;;;;;;;9.88;9.00;;;8.90;99.90;;;;;;4980011;28;20109;-88
2023/12/11 03:10:17;;;;;;;9.38;8.35;;;8.90;99.90;;;;;;4981261;28;20038;-89
2023/12/11 03:12:44;;;;;;;12.63;8.23;;;8.90;99.90;;;;;;4980406;28;20054;-89
2023/12/11 03:15:11;;;;;;;9.85;8.40;;;8.90;99.90;;;;;;4963900;28;20034;-90
2023/12/11 03:17:37;;;;;;;8.30;7.68;;;8.90;99.90;;;;;;4963885;28;20065;-89
2023/12/11 03:20:11;;;;;;;9.60;7.93;;;8.90;99.90;;;;;;4963783;28;20126;-89
2023/12/11 03:22:38;;;;;;;10.18;8.45;;;8.90;99.90;;;;;;4979981;28;20074;-87
2023/12/11 03:25:05;;;;;;;9.30;8.40;;;8.90;99.90;;;;;;4963750;28;20081;-88
2023/12/11 03:27:31;;;;;;;9.50;8.10;;;8.90;99.90;;;;;;4963671;28;20041;-89
2023/12/11 03:29:57;;;;;;;8.77;8.18;;;8.90;99.90;;;;;;4963510;28;20105;-89
2023/12/11 03:32:24;;;;;;;9.52;8.55;;;8.90;99.90;;;;;;4979615;28;20030;-88
2023/12/11 03:34:53;;;;;;;9.18;8.38;;;8.80;99.90;;;;;;4963470;28;20084;-88
2023/12/11 03:37:20;;;;;;;8.75;8.05;;;8.80;99.90;;;;;;4979208;28;20034;-88
2023/12/11 03:39:47;;;;;;;17.38;8.18;;;8.80;99.90;;;;;;4959981;28;20038;-88
2023/12/11 03:42:13;;;;;;;9.00;8.25;;;8.80;99.90;;;;;;4959951;28;20118;-88
2023/12/11 03:44:40;;;;;;;8.73;8.07;;;8.80;99.90;;;;;;4976260;28;20027;-90
2023/12/11 03:47:06;;;;;;;11.45;7.57;;;8.80;99.90;;;;;;4959905;28;20027;-91
2023/12/11 03:49:33;;;;;;;8.32;7.72;;;8.80;99.90;;;;;;4975832;28;20027;-88
2023/12/11 03:52:00;;;;;;;8.88;8.18;;;8.70;99.90;;;;;;4976428;28;20039;-88
2023/12/11 03:54:26;;;;;;;8.30;7.70;;;8.70;99.90;;;;;;4959851;28;20118;-87
2023/12/11 03:56:53;;;;;;;9.27;7.93;;;8.70;99.90;;;;;;4960637;28;20062;-89
2023/12/11 03:59:19;;;;;;;8.80;8.00;;;8.60;99.90;;;;;;4959672;28;20039;-89
2023/12/11 04:01:46;;;;;;;8.75;8.05;;;8.50;99.90;;;;;;4959806;28;20053;-90
2023/12/11 04:04:12;;;;;;;8.75;8.00;;;8.50;99.90;;;;;;4960603;28;20459;-88
2023/12/11 04:06:39;;;;;;;10.25;7.93;;;8.40;99.90;;;;;;4959617;28;20170;-88
2023/12/11 04:09:05;;;;;;;9.63;7.72;;;8.40;99.90;;;;;;4959544;28;20121;-88
2023/12/11 04:11:32;;;;;;;8.10;7.40;;;8.30;99.90;;;;;;4960075;28;20031;-92
2023/12/11 04:13:59;;;;;;;8.00;7.20;;;8.30;99.90;;;;;;4964124;28;20118;-89
2023/12/11 04:16:26;;;;;;;7.75;7.05;;;8.40;99.90;;;;;;4961722;28;20059;-89
2023/12/11 04:18:59;;;;;;;7.10;6.70;;;8.40;99.90;;;;;;4962907;28;20085;-90
2023/12/11 04:21:25;;;;;;;8.75;6.88;;;8.50;99.90;;;;;;4959942;28;20043;-85
2023/12/11 04:23:52;;;;;;;8.15;7.00;;;8.40;99.90;;;;;;4959346;28;20037;-87
2023/12/11 04:26:19;;;;;;;12.75;7.32;;;8.40;99.90;;;;;;4959538;28;20027;-89
2023/12/11 04:28:45;;;;;;;7.80;7.00;;;8.50;99.90;;;;;;4959531;28;20117;-88
2023/12/11 04:31:12;;;;;;;8.02;7.22;;;8.50;99.90;;;;;;4959097;28;20027;-87
2023/12/11 04:33:39;;;;;;;7.25;6.75;;;8.40;99.90;;;;;;4959145;28;20050;-90
2023/12/11 04:36:08;;;;;;;10.48;7.40;;;8.40;99.90;;;;;;4959325;28;20030;-87
2023/12/11 04:38:34;;;;;;;9.57;6.97;;;8.40;99.90;;;;;;4968841;28;20042;-87
2023/12/11 04:41:01;;;;;;;7.35;6.65;;;8.40;99.90;;;;;;4962122;28;20033;-86
2023/12/11 04:43:27;;;;;;;8.57;7.10;;;8.40;99.90;;;;;;4978131;28;20480;-86
2023/12/11 04:45:59;;;;;;;8.32;6.68;;;8.40;99.90;;;;;;4978472;28;20030;-89
2023/12/11 04:48:27;;;;;;;7.10;6.50;;;8.40;99.90;;;;;;4962467;28;20080;-87
2023/12/11 04:50:53;;;;;;;8.40;7.53;;;8.30;99.90;;;;;;4961895;28;20026;-86
2023/12/11 04:53:20;;;;;;;7.82;6.80;;;8.30;99.90;;;;;;4961952;28;20045;-86
2023/12/11 04:55:46;;;;;;;6.70;6.28;;;8.30;99.90;;;;;;4961991;28;20030;-86
2023/12/11 04:58:13;;;;;;;10.77;6.65;;;8.40;99.90;;;;;;4977978;28;20034;-86
2023/12/11 05:00:39;;;;;;;7.25;6.60;;;8.40;99.90;;;;;;4961375;28;20034;-85
2023/12/11 05:03:05;;;;;;;8.40;6.30;;;8.40;99.90;;;;;;4961800;28;20057;-87
2023/12/11 05:05:33;;;;;;;6.82;6.32;;;8.40;99.90;;;;;;4961834;28;20058;-87
2023/12/11 05:08:00;;;;;;;6.82;6.32;;;8.30;99.90;;;;;;4961778;28;20061;-88
2023/12/11 05:10:27;;;;;;;7.07;6.47;;;8.30;99.90;;;;;;4977733;28;20073;-87
2023/12/11 05:12:53;;;;;;;7.65;6.50;;;8.20;99.90;;;;;;4977825;28;20038;-88
2023/12/11 05:15:19;;;;;;;7.18;6.20;;;8.20;99.90;;;;;;4961747;28;20033;-87
2023/12/11 05:17:47;;;;;;;7.18;6.53;;;8.20;99.90;;;;;;4962286;28;20129;-92
2023/12/11 05:20:16;;;;;;;11.35;6.35;;;8.20;99.90;;;;;;4990414;28;20022;-89
2023/12/11 05:22:42;;;;;;;7.13;6.25;;;8.20;99.90;;;;;;4980844;28;20479;-89
2023/12/11 05:25:09;;;;;;;11.75;6.35;;;8.10;99.90;;;;;;4980901;28;20479;-87
2023/12/11 05:27:36;;;;;;;8.00;6.55;;;8.10;99.90;;;;;;4997106;28;20030;-87
2023/12/11 05:30:03;;;;;;;9.27;6.20;;;8.00;99.90;;;;;;4980924;28;20026;-87
2023/12/11 05:32:29;;;;;;;6.05;5.47;;;8.10;99.90;;;;;;4981096;28;20041;-86
2023/12/11 05:34:56;;;;;;;6.18;5.40;;;8.10;99.90;;;;;;4980797;28;20029;-87
2023/12/11 05:37:22;;;;;;;7.68;5.82;;;8.10;99.90;;;;;;4993429;28;20033;-87
2023/12/11 05:39:49;;;;;;;5.97;5.35;;;8.10;99.90;;;;;;4942070;28;20074;-86
2023/12/11 05:42:15;;;;;;;5.68;5.28;;;8.00;99.90;;;;;;4942220;28;20073;-86
2023/12/11 05:44:42;;;;;;;5.53;5.13;;;8.00;99.90;;;;;;4942099;28;20030;-86
2023/12/11 05:47:08;;;;;;;6.90;5.10;;;7.90;99.90;;;;;;4954615;28;20049;-86
2023/12/11 05:49:35;;;;;;;6.00;5.38;;;7.90;99.90;;;;;;4941929;28;20042;-87
2023/12/11 05:52:02;;;;;;;9.75;6.05;;;7.90;99.90;;;;;;4942107;28;20508;-87
2023/12/11 05:54:28;;;;;;;6.20;5.60;;;7.80;99.90;;;;;;4942276;28;20101;-87
2023/12/11 05:56:55;;;;;;;7.70;6.00;;;7.80;99.90;;;;;;4958113;28;20126;-86
2023/12/11 05:59:22;;;;;;;6.63;5.57;;;7.70;99.90;;;;;;4941977;28;20459;-88
2023/12/11 06:01:48;;;;;;;10.50;6.07;;;7.70;99.90;;;;;;4951566;28;20023;-87
2023/12/11 06:04:15;;;;;;;9.32;5.88;;;7.60;99.90;;;;;;4941704;28;20036;-88
2023/12/11 06:06:42;;;;;;;7.65;5.65;;;7.60;99.90;;;;;;4958117;28;20031;-90
2023/12/11 06:09:09;;;;;;;6.78;5.18;;;7.60;99.90;;;;;;4954483;28;20417;-88
2023/12/11 06:11:35;;;;;;;8.30;5.25;;;7.50;99.90;;;;;;4958334;28;20061;-87
2023/12/11 06:14:02;;;;;;;10.50;5.93;;;7.60;99.90;;;;;;4945256;28;20093;-88
2023/12/11 06:16:29;;;;;;;8.25;5.47;;;7.60;99.90;;;;;;4945761;28;20031;-86
2023/12/11 06:18:56;;;;;;;7.75;5.60;;;7.70;99.90;;;;;;4966449;28;20035;-90
2023/12/11 06:21:23;;;;;;;8.05;5.35;;;7.60;99.90;;;;;;4988553;28;20034;-89
2023/12/11 06:23:50;;;;;;;6.70;5.35;;;7.70;99.90;;;;;;4965081;28;20030;-90
2023/12/11 06:26:34;;;;;;;7.88;5.18;;;7.70;99.90;;;;;;4964827;28;20027;-89
2023/12/11 06:29:01;;;;;;;8.05;5.13;;;7.80;99.90;;;;;;4965001;28;20038;-90
2023/12/11 06:31:29;;;;;;;7.72;5.63;;;7.80;99.90;;;;;;4966194;28;20049;-90
2023/12/11 06:34:29;;;;;;;8.77;5.55;;;7.80;99.90;;;;;;4982405;28;20137;-92
2023/12/11 06:36:56;;;;;;;6.97;6.28;;;7.90;99.90;;;;;;4961803;28;20034;-84
2023/12/11 06:39:26;;;;;;;10.48;6.20;;;8.00;99.90;;;;;;4979064;28;20503;-88
2023/12/11 06:41:53;;;;;;;10.07;6.20;;;8.20;99.90;;;;;;5000896;28;20395;-91
2023/12/11 06:44:19;;;;;;;8.60;5.47;;;8.40;99.90;;;;;;4984103;28;20038;-91
2023/12/11 06:46:54;;;;;;;4.78;4.00;;;8.60;99.90;;;;;;4984311;28;20048;-91
2023/12/11 06:49:21;;;;;;;4.82;3.30;;;8.70;99.90;;;;;;4995867;28;20109;-91
2023/12/11 06:51:48;;;;;;;4.05;3.70;;;9.00;99.90;;;;;;4964601;28;20065;-92
2023/12/11 06:54:15;;;;;;;7.07;3.97;;;9.20;99.90;;;;;;4980926;28;20042;-93
2023/12/11 06:56:42;;;;;;;4.90;4.13;;;9.30;99.90;;;;;;4964480;28;20038;-91
2023/12/11 06:59:08;;;;;;;7.00;5.30;;;9.60;99.90;;;;;;4964487;28;20038;-89
2023/12/11 07:01:35;;;;;;;6.25;5.68;;;10.20;99.90;;;;;;4964956;28;20031;-89
2023/12/11 07:04:02;;;;;;;7.70;7.10;;;10.10;99.90;;;;;;4964402;28;20031;-88
2023/12/11 07:06:29;;;;;;;9.20;8.23;;;10.00;99.90;;;;;;4965061;28;20058;-89
2023/12/11 07:08:56;;;;;;;11.00;10.00;;;10.00;99.90;;;;;;4964556;28;20037;-89
2023/12/11 07:11:24;;;;;;;13.43;12.32;;;10.00;99.90;;;;;;4963751;28;20479;-87
2023/12/11 07:13:51;;;;;;;14.30;13.15;;;10.10;99.90;;;;;;4963495;28;20033;-83
2023/12/11 07:16:19;;;;;;;16.23;14.82;;;10.30;99.90;;;;;;4979513;28;20368;-86
2023/12/11 07:18:46;;;;;;;16.02;14.73;;;10.60;99.90;;;;;;4963417;28;20030;-85
2023/12/11 07:21:13;;;;;;;16.63;15.07;;;10.60;99.90;;;;;;4963208;28;20113;-84
2023/12/11 07:23:43;;;;;;;17.30;15.90;;;10.50;99.90;;;;;;4996563;28;20105;-85
2023/12/11 07:26:10;;;;;;;17.35;15.90;;;10.70;99.90;;;;;;4963102;28;20046;-85
2023/12/11 07:28:38;;;;;;;17.77;16.20;;;10.80;99.90;;;;;;4963264;28;20034;-86
2023/12/11 07:31:05;;;;;;;17.75;16.27;;;10.80;99.90;;;;;;4974824;28;20037;-86
2023/12/11 07:33:33;;;;;;;18.35;16.70;;;10.90;99.90;;;;;;4978956;28;20037;-86
2023/12/11 07:35:59;;;;;;;21.00;17.48;;;11.00;99.90;;;;;;4995538;28;20031;-86
2023/12/11 07:38:26;;;;;;;18.60;17.25;;;11.10;99.90;;;;;;4995081;28;20496;-87
2023/12/11 07:40:54;;;;;;;17.83;16.42;;;11.30;99.90;;;;;;4979170;28;20030;-85
2023/12/11 07:43:20;;;;;;;17.90;16.50;;;11.40;99.90;;;;;;4995297;28;20045;-86
2023/12/11 07:45:50;;;;;;;17.83;16.20;;;11.40;99.90;;;;;;4979212;28;20490;-87
2023/12/11 07:48:16;;;;;;;17.42;15.82;;;11.40;99.90;;;;;;4979671;28;20026;-88
2023/12/11 07:50:43;;;;;;;15.93;14.82;;;11.40;99.90;;;;;;4963005;28;20037;-89
2023/12/11 07:53:09;;;;;;;16.30;15.10;;;11.30;99.90;;;;;;4995193;28;20472;-88
2023/12/11 07:55:36;;;;;;;18.30;16.77;;;11.40;99.90;;;;;;4979226;28;20395;-88
2023/12/11 07:58:06;;;;;;;17.67;16.27;;;11.30;99.90;;;;;;4995221;28;20039;-87
2023/12/11 08:00:33;;;;;;;16.80;15.38;;;11.40;99.90;;;;;;4978987;28;20088;-88
2023/12/11 08:02:59;;;;;;;15.90;14.80;;;11.40;99.90;;;;;;4995427;28;20027;-87
2023/12/11 08:05:27;;;;;;;14.77;13.68;;;11.50;99.90;;;;;;4980759;28;20026;-89
2023/12/11 08:07:53;;;;;;;14.25;13.15;;;11.70;99.90;;;;;;4978932;28;20121;-88
2023/12/11 08:10:19;;;;;;;13.93;12.73;;;11.70;99.90;;;;;;4979228;28;20030;-88
2023/12/11 08:12:50;;;;;;;13.80;12.80;;;11.90;99.90;;;;;;4978348;28;20027;-88
2023/12/11 08:15:17;;;;;;;14.77;12.95;;;11.90;99.90;;;;;;4998304;28;20065;-88
2023/12/11 08:17:43;;;;;;;13.65;12.48;;;12.00;99.90;;;;;;4981885;28;20030;-88
2023/12/11 08:20:11;;;;;;;15.35;12.60;;;12.10;99.90;;;;;;4982877;28;20034;-88
2023/12/11 08:22:37;;;;;;;15.60;14.10;;;12.20;99.90;;;;;;4982505;28;20030;-88
2023/12/11 08:25:03;;;;;;;13.73;12.50;;;12.50;99.90;;;;;;4983427;28;20026;-88
2023/12/11 08:27:30;;;;;;;16.50;13.98;;;12.70;99.90;;;;;;4982412;28;20030;-88
2023/12/11 08:30:04;;;;;;;15.18;13.10;;;13.00;99.90;;;;;;4983699;28;20416;-88
2023/12/11 08:32:30;;;;;;;;;;;13.30;99.90;;;;;;4999626;28;20089;-87
2023/12/11 08:35:02;;;;;;;13.85;12.43;;;13.50;99.90;;;;;;4998595;28;19933;-87
2023/12/11 08:37:28;;;;;;;13.35;12.35;;;13.50;99.90;;;;;;4981599;28;20037;-87
2023/12/11 08:39:55;;;;;;;13.85;12.65;;;13.40;99.90;;;;;;4973991;28;20407;-89
2023/12/11 08:42:22;;;;;;;14.00;12.90;;;13.50;99.90;;;;;;4979089;28;20141;-89
2023/12/11 08:44:49;;;;;;;14.23;12.98;;;13.60;99.90;;;;;;4962662;28;20026;-88
2023/12/11 08:47:15;;;;;;;15.13;14.02;;;13.70;99.90;;;;;;4962514;28;20026;-89
2023/12/11 08:49:42;;;;;;;15.05;13.75;;;13.80;99.90;;;;;;4963069;28;20026;-88
2023/12/11 08:52:09;;;;;;;14.85;13.85;;;13.80;99.90;;;;;;4961971;28;20121;-87
2023/12/11 08:54:36;;;;;;;16.02;14.40;;;13.80;99.90;;;;;;4961938;28;20037;-87
2023/12/11 08:57:02;;;;;;;14.95;13.95;;;13.90;99.90;;;;;;4961800;28;20065;-87
2023/12/11 08:59:29;;;;;;;14.85;13.63;;;13.90;99.90;;;;;;4962155;28;20038;-87
2023/12/11 09:01:55;;;;;;;15.63;14.43;;;14.00;99.90;;;;;;4961859;28;20029;-86
2023/12/11 09:04:21;;;;;;;15.75;14.43;;;14.00;99.90;;;;;;4961924;28;20030;-85
2023/12/11 09:06:48;;;;;;;15.45;14.35;;;13.90;99.90;;;;;;4961743;28;20037;-84
2023/12/11 09:09:14;;;;;;;15.20;14.00;;;13.80;99.90;;;;;;4962980;28;20108;-85
2023/12/11 09:11:40;;;;;;;16.58;15.10;;;13.90;99.90;;;;;;4980800;28;20040;-85
2023/12/11 09:14:07;;;;;;;16.02;14.57;;;14.00;99.90;;;;;;4980898;28;20479;-85
2023/12/11 09:16:34;;;;;;;18.33;15.93;;;14.10;99.90;;;;;;4980804;28;20483;-86
2023/12/11 09:19:00;;;;;;;17.20;14.82;;;14.20;99.90;;;;;;4980878;28;20052;-86
2023/12/11 09:21:27;;;;;;;15.95;14.40;;;14.20;99.90;;;;;;4980990;28;20032;-88
2023/12/11 09:23:53;;;;;;;15.68;14.30;;;14.30;99.90;;;;;;4993011;28;20049;-84
2023/12/11 09:26:20;;;;;;;15.98;14.63;;;14.30;99.90;;;;;;4980918;28;20088;-86
2023/12/11 09:28:46;;;;;;;15.32;14.35;;;14.40;99.90;;;;;;4996714;28;20409;-86
2023/12/11 09:31:12;;;;;;;17.85;16.40;;;14.50;99.90;;;;;;4977348;28;20407;-85
2023/12/11 09:33:40;;;;;;;17.20;15.77;;;14.60;99.90;;;;;;4977836;28;20030;-87
2023/12/11 09:36:07;;;;;;;17.05;15.60;;;14.70;99.90;;;;;;4977816;28;20026;-87
2023/12/11 09:38:39;;;;;;;18.23;16.73;;;14.90;99.90;;;;;;4977738;28;20046;-87
2023/12/11 09:41:07;;;;;;;17.60;16.27;;;14.90;99.90;;;;;;4977833;28;20125;-88
2023/12/11 09:43:35;;;;;;;18.88;17.10;;;15.10;99.90;;;;;;4977620;28;20026;-87
2023/12/11 09:46:09;;;;;;;17.35;15.77;;;15.10;99.90;;;;;;4977503;28;20169;-86
2023/12/11 09:48:36;;;;;;;17.58;16.17;;;15.10;99.90;;;;;;4981456;28;20026;-87
2023/12/11 09:51:02;;;;;;;17.00;15.57;;;14.90;99.90;;;;;;4981426;28;20029;-87
2023/12/11 09:53:32;;;;;;;16.38;15.10;;;14.70;99.90;;;;;;4981236;28;20031;-88
2023/12/11 09:55:59;;;;;;;16.17;15.07;;;14.70;99.90;;;;;;4981622;28;20035;-87
2023/12/11 09:58:25;;;;;;;16.00;14.90;;;14.60;99.90;;;;;;4981521;28;20081;-88
2023/12/11 10:00:52;;;;;;;17.52;15.35;;;14.50;99.90;;;;;;4981314;28;20030;-88
2023/12/11 10:03:19;;;;;;;16.77;15.50;;;14.50;99.90;;;;;;4981300;28;20073;-87
2023/12/11 10:05:49;;;;;;;18.42;16.63;;;14.50;99.90;;;;;;4984484;28;20030;-87
2023/12/11 10:08:17;;;;;;;19.15;17.33;;;14.70;99.90;;;;;;4981200;28;20023;-87
2023/12/11 10:10:44;;;;;;;18.05;16.70;;;14.70;99.90;;;;;;4980858;28;20030;-88
2023/12/11 10:13:21;;;;;;;17.83;16.63;;;14.50;99.90;;;;;;4981013;28;20038;-87
2023/12/11 10:15:48;;;;;;;17.38;15.98;;;14.50;99.90;;;;;;4981114;28;20026;-86
2023/12/11 10:18:15;;;;;;;17.98;16.70;;;14.50;99.90;;;;;;4981030;28;20045;-87
2023/12/11 10:20:42;;;;;;;18.77;17.20;;;14.60;99.90;;;;;;5001495;28;20108;-86
2023/12/11 10:23:21;;;;;;;17.58;16.23;;;14.70;99.90;;;;;;4983954;28;20030;-88
2023/12/11 10:26:04;;;;;;;17.63;16.25;;;14.90;99.90;;;;;;5000069;28;20030;-88
2023/12/11 10:28:30;;;;;;;17.52;16.20;;;14.90;99.90;;;;;;4984263;28;20426;-87
2023/12/11 10:31:01;;;;;;;17.35;15.90;;;15.00;99.90;;;;;;4991154;28;20117;-87
2023/12/11 10:33:32;;;;;;;17.42;16.13;;;14.90;99.90;;;;;;4996990;28;20041;-86
2023/12/11 10:36:15;;;;;;;18.25;16.63;;;15.00;99.90;;;;;;4980150;28;20030;-82
2023/12/11 10:38:43;;;;;;;18.45;16.80;;;15.10;99.90;;;;;;4992223;28;20051;-84
2023/12/11 10:41:24;;;;;;;17.05;15.90;;;15.10;99.90;;;;;;4976235;28;20038;-83
2023/12/11 10:43:51;;;;;;;18.13;16.65;;;15.10;99.90;;;;;;4995817;28;20488;-84
2023/12/11 10:46:20;;;;;;;17.42;16.08;;;14.90;99.90;;;;;;4979347;28;20077;-84
2023/12/11 10:48:46;;;;;;;18.45;17.05;;;14.90;99.90;;;;;;4995184;28;20038;-84
2023/12/11 10:51:14;;;;;;;16.77;15.75;;;15.10;99.90;;;;;;4995328;28;20066;-85
2023/12/11 10:53:40;;;;;;;17.50;16.13;;;15.10;99.90;;;;;;4980826;28;20049;-87
2023/12/11 10:56:07;;;;;;;17.83;16.52;;;15.20;99.90;;;;;;4979912;28;20387;-84
2023/12/11 10:58:38;;;;;;;18.40;16.77;;;15.20;99.90;;;;;;4978835;28;20038;-84
2023/12/11 11:01:07;;;;;;;19.50;17.63;;;15.20;99.90;;;;;;4979781;28;20041;-85
2023/12/11 11:03:34;;;;;;;19.50;18.00;;;15.20;99.90;;;;;;4996038;28;20033;-85
2023/12/11 11:06:01;;;;;;;19.40;18.10;;;15.30;99.90;;;;;;4996858;28;20086;-84
2023/12/11 11:08:48;;;;;;;19.17;17.45;;;15.10;99.90;;;;;;4979741;28;20030;-84
2023/12/11 11:11:24;;;;;;;19.25;17.88;;;15.00;99.90;;;;;;4984414;28;20098;-86
2023/12/11 11:14:08;;;;;;;17.25;16.05;;;14.80;99.90;;;;;;4985522;28;20030;-87
2023/12/11 11:16:55;;;;;;;17.13;16.05;;;14.80;99.90;;;;;;4983300;28;20026;-88
2023/12/11 11:19:22;;;;;;;19.17;17.50;;;14.90;99.90;;;;;;4979802;28;20065;-87
2023/12/11 11:22:04;;;;;;;41.17;25.77;;;15.00;99.90;;;;;;4965048;28;20026;-88
2023/12/11 11:24:35;;;;;;;50.95;32.17;;;15.10;99.90;;;;;;4996670;28;20038;-87
2023/12/11 11:27:03;;;;;;;38.78;30.45;;;15.10;99.90;;;;;;4981420;28;20030;-87
2023/12/11 11:29:45;;;;;;;25.42;22.67;;;15.00;99.90;;;;;;4986090;28;20030;-88
2023/12/11 11:32:12;;;;;;;19.00;17.63;;;15.10;99.90;;;;;;4998958;28;20026;-89
2023/12/11 11:34:45;;;;;;;19.05;17.75;;;15.20;99.90;;;;;;4999054;28;20037;-89
2023/12/11 11:37:20;;;;;;;20.33;18.77;;;15.20;99.90;;;;;;5000693;28;20036;-90
2023/12/11 11:40:32;;;;;;;19.55;17.95;;;15.10;99.90;;;;;;4982988;28;20057;-88
2023/12/11 11:42:58;;;;;;;21.33;19.65;;;15.20;99.90;;;;;;4977696;28;20061;-88
2023/12/11 11:45:25;;;;;;;18.85;17.65;;;15.40;99.90;;;;;;4998635;28;20049;-88
2023/12/11 11:47:52;;;;;;;19.90;18.42;;;15.40;99.90;;;;;;4982337;28;20112;-89
2023/12/11 11:50:20;;;;;;;19.77;18.40;;;15.40;99.90;;;;;;4982475;28;20049;-88
2023/12/11 11:52:54;;;;;;;22.05;20.15;;;15.30;99.90;;;;;;4998663;28;20038;-88
2023/12/11 11:55:26;;;;;;;21.00;19.50;;;15.40;99.90;;;;;;4998393;28;20053;-89
2023/12/11 11:57:53;;;;;;;19.90;18.60;;;15.30;99.90;;;;;;4982334;28;20042;-89
2023/12/11 12:00:24;;;;;;;20.65;19.27;;;15.00;99.90;;;;;;4978666;28;20022;-87
2023/12/11 12:03:06;;;;;;;22.23;20.33;;;14.80;99.90;;;;;;4995049;28;20169;-88
2023/12/11 12:05:34;;;;;;;21.42;19.63;;;14.90;99.90;;;;;;4995182;28;20030;-89
2023/12/11 12:08:00;;;;;;;20.38;18.73;;;14.90;99.90;;;;;;4995103;28;20102;-88
2023/12/11 12:10:27;;;;;;;19.98;18.63;;;14.70;99.90;;;;;;4997184;28;20033;-87
2023/12/11 12:12:57;;;;;;;21.13;19.52;;;14.70;99.90;;;;;;4981743;28;20052;-88
2023/12/11 12:15:23;;;;;;;23.55;21.55;;;14.80;99.90;;;;;;4982002;28;20121;-87
2023/12/11 12:17:51;;;;;;;22.75;20.67;;;14.90;99.90;;;;;;4981987;28;20621;-88
2023/12/11 12:20:19;;;;;;;28.08;25.40;;;15.00;99.90;;;;;;4982483;28;20396;-87
2023/12/11 12:22:56;;;;;;;29.48;26.92;;;15.00;99.90;;;;;;4979047;28;20388;-88
2023/12/11 12:25:26;;;;;;;22.85;21.05;;;15.10;99.90;;;;;;4978531;28;20030;-87
2023/12/11 12:27:55;;;;;;;24.75;22.70;;;15.10;99.90;;;;;;4978522;28;20057;-88
2023/12/11 12:30:22;;;;;;;25.75;23.50;;;15.10;99.90;;;;;;4978406;28;20035;-88
2023/12/11 12:32:50;;;;;;;25.85;23.85;;;15.20;99.90;;;;;;4978287;28;20026;-87
2023/12/11 12:35:18;;;;;;;22.42;20.85;;;15.20;99.90;;;;;;4978214;28;20487;-87
2023/12/11 12:37:49;;;;;;;22.85;21.13;;;15.30;99.90;;;;;;4978111;28;20027;-88
2023/12/11 12:40:19;;;;;;;22.33;20.70;;;15.20;99.90;;;;;;4994611;28;20045;-88
2023/12/11 12:42:48;;;;;;;22.20;20.58;;;15.20;99.90;;;;;;4994272;28;20479;-87